sensor_id;sensor_type;location;lat;lon;timestamp;P1;durP1;ratioP1;P2;durP2;ratioP2
66546;SDS011;53400;50.364;14.874;2024-02-21T00:05:35;9.55;;;3.38;;
66546;SDS011;53400;50.364;14.874;2024-02-21T00:12:33;10.93;;;3.63;;
66546;SDS011;53400;50.364;14.874;2024-02-21T00:25:34;10.20;;;3.42;;
66546;SDS011;53400;50.364;14.874;2024-02-21T00:28:44;10.00;;;3.40;;
66546;SDS011;53400;50.364;14.874;2024-02-21T00:34:08;14.73;;;4.50;;
66546;SDS011;53400;50.364;14.874;2024-02-21T00:36:47;10.00;;;3.88;;
66546;SDS011;53400;50.364;14.874;2024-02-21T00:42:58;12.50;;;3.72;;
66546;SDS011;53400;50.364;14.874;2024-02-21T00:45:36;13.18;;;3.45;;
66546;SDS011;53400;50.364;14.874;2024-02-21T00:48:37;10.60;;;3.80;;
66546;SDS011;53400;50.364;14.874;2024-02-21T00:51:07;9.23;;;2.92;;
66546;SDS011;53400;50.364;14.874;2024-02-21T00:54:18;11.45;;;3.35;;
66546;SDS011;53400;50.364;14.874;2024-02-21T01:01:12;10.85;;;3.28;;
66546;SDS011;53400;50.364;14.874;2024-02-21T01:03:56;17.63;;;4.07;;
66546;SDS011;53400;50.364;14.874;2024-02-21T01:06:31;7.55;;;3.05;;
66546;SDS011;53400;50.364;14.874;2024-02-21T01:09:09;13.13;;;3.80;;
66546;SDS011;53400;50.364;14.874;2024-02-21T01:12:18;10.00;;;3.20;;
66546;SDS011;53400;50.364;14.874;2024-02-21T01:15:29;10.52;;;3.90;;
66546;SDS011;53400;50.364;14.874;2024-02-21T01:21:27;9.40;;;4.28;;
66546;SDS011;53400;50.364;14.874;2024-02-21T01:24:21;9.20;;;3.40;;
66546;SDS011;53400;50.364;14.874;2024-02-21T01:27:31;11.88;;;3.53;;
66546;SDS011;53400;50.364;14.874;2024-02-21T01:30:30;9.50;;;2.95;;
66546;SDS011;53400;50.364;14.874;2024-02-21T01:33:45;11.68;;;3.90;;
66546;SDS011;53400;50.364;14.874;2024-02-21T01:39:49;9.20;;;3.53;;
66546;SDS011;53400;50.364;14.874;2024-02-21T01:47:34;9.45;;;3.22;;
66546;SDS011;53400;50.364;14.874;2024-02-21T01:48:46;11.55;;;3.30;;
66546;SDS011;53400;50.364;14.874;2024-02-21T01:51:34;13.02;;;3.60;;
66546;SDS011;53400;50.364;14.874;2024-02-21T01:54:20;12.90;;;3.75;;
66546;SDS011;53400;50.364;14.874;2024-02-21T02:00:20;12.27;;;3.75;;
66546;SDS011;53400;50.364;14.874;2024-02-21T02:03:40;11.10;;;3.60;;
66546;SDS011;53400;50.364;14.874;2024-02-21T02:06:21;12.25;;;3.92;;
66546;SDS011;53400;50.364;14.874;2024-02-21T02:09:05;9.43;;;3.97;;
66546;SDS011;53400;50.364;14.874;2024-02-21T02:12:05;8.98;;;3.55;;
66546;SDS011;53400;50.364;14.874;2024-02-21T02:15:10;9.98;;;3.55;;
66546;SDS011;53400;50.364;14.874;2024-02-21T02:18:05;10.38;;;3.65;;
66546;SDS011;53400;50.364;14.874;2024-02-21T02:26:43;11.15;;;3.63;;
66546;SDS011;53400;50.364;14.874;2024-02-21T02:29:16;11.63;;;4.23;;
66546;SDS011;53400;50.364;14.874;2024-02-21T02:32:27;10.73;;;3.72;;
66546;SDS011;53400;50.364;14.874;2024-02-21T02:35:22;12.10;;;3.78;;
66546;SDS011;53400;50.364;14.874;2024-02-21T02:41:23;11.32;;;3.78;;
66546;SDS011;53400;50.364;14.874;2024-02-21T02:44:56;10.63;;;4.00;;
66546;SDS011;53400;50.364;14.874;2024-02-21T02:48:30;10.93;;;3.10;;
66546;SDS011;53400;50.364;14.874;2024-02-21T02:51:31;10.80;;;3.85;;
66546;SDS011;53400;50.364;14.874;2024-02-21T02:54:22;10.73;;;3.58;;
66546;SDS011;53400;50.364;14.874;2024-02-21T02:57:36;10.63;;;3.50;;
66546;SDS011;53400;50.364;14.874;2024-02-21T03:00:32;10.10;;;3.67;;
66546;SDS011;53400;50.364;14.874;2024-02-21T03:03:25;11.40;;;4.30;;
66546;SDS011;53400;50.364;14.874;2024-02-21T03:06:49;9.43;;;3.35;;
66546;SDS011;53400;50.364;14.874;2024-02-21T03:10:02;9.40;;;3.47;;
66546;SDS011;53400;50.364;14.874;2024-02-21T03:16:50;11.82;;;3.70;;
66546;SDS011;53400;50.364;14.874;2024-02-21T03:19:55;12.55;;;3.72;;
66546;SDS011;53400;50.364;14.874;2024-02-21T03:23:01;13.18;;;3.78;;
66546;SDS011;53400;50.364;14.874;2024-02-21T03:25:41;11.45;;;3.78;;
66546;SDS011;53400;50.364;14.874;2024-02-21T03:32:10;12.60;;;3.70;;
66546;SDS011;53400;50.364;14.874;2024-02-21T03:35:03;13.10;;;3.47;;
66546;SDS011;53400;50.364;14.874;2024-02-21T03:38:23;9.68;;;3.28;;
66546;SDS011;53400;50.364;14.874;2024-02-21T03:44:48;12.95;;;3.10;;
66546;SDS011;53400;50.364;14.874;2024-02-21T03:47:31;10.63;;;3.53;;
66546;SDS011;53400;50.364;14.874;2024-02-21T03:50:21;9.45;;;3.95;;
66546;SDS011;53400;50.364;14.874;2024-02-21T03:53:20;8.75;;;3.28;;
66546;SDS011;53400;50.364;14.874;2024-02-21T03:56:52;12.48;;;3.75;;
66546;SDS011;53400;50.364;14.874;2024-02-21T03:59:20;9.63;;;3.45;;
66546;SDS011;53400;50.364;14.874;2024-02-21T04:02:09;13.05;;;3.80;;
66546;SDS011;53400;50.364;14.874;2024-02-21T04:04:57;10.55;;;3.97;;
66546;SDS011;53400;50.364;14.874;2024-02-21T04:35:53;10.68;;;3.92;;
66546;SDS011;53400;50.364;14.874;2024-02-21T04:38:53;8.50;;;3.70;;
66546;SDS011;53400;50.364;14.874;2024-02-21T04:44:37;10.68;;;3.13;;
66546;SDS011;53400;50.364;14.874;2024-02-21T04:47:16;12.65;;;3.40;;
66546;SDS011;53400;50.364;14.874;2024-02-21T04:50:05;11.10;;;3.95;;
66546;SDS011;53400;50.364;14.874;2024-02-21T04:53:06;10.57;;;3.60;;
66546;SDS011;53400;50.364;14.874;2024-02-21T04:55:52;9.55;;;3.45;;
66546;SDS011;53400;50.364;14.874;2024-02-21T04:58:37;10.70;;;3.70;;
66546;SDS011;53400;50.364;14.874;2024-02-21T05:01:31;10.40;;;3.95;;
66546;SDS011;53400;50.364;14.874;2024-02-21T05:04:02;9.30;;;3.50;;
66546;SDS011;53400;50.364;14.874;2024-02-21T05:07:11;11.52;;;3.80;;
66546;SDS011;53400;50.364;14.874;2024-02-21T05:09:56;13.75;;;3.67;;
66546;SDS011;53400;50.364;14.874;2024-02-21T05:12:53;13.18;;;3.72;;
66546;SDS011;53400;50.364;14.874;2024-02-21T05:15:54;13.18;;;4.05;;
66546;SDS011;53400;50.364;14.874;2024-02-21T05:21:44;9.20;;;3.53;;
66546;SDS011;53400;50.364;14.874;2024-02-21T05:24:35;12.48;;;4.10;;
66546;SDS011;53400;50.364;14.874;2024-02-21T05:27:33;11.95;;;4.22;;
66546;SDS011;53400;50.364;14.874;2024-02-21T05:30:27;8.10;;;3.42;;
66546;SDS011;53400;50.364;14.874;2024-02-21T05:33:09;9.18;;;3.83;;
66546;SDS011;53400;50.364;14.874;2024-02-21T05:36:21;10.63;;;3.88;;
66546;SDS011;53400;50.364;14.874;2024-02-21T05:39:22;10.80;;;4.00;;
66546;SDS011;53400;50.364;14.874;2024-02-21T05:42:03;10.48;;;4.05;;
66546;SDS011;53400;50.364;14.874;2024-02-21T05:45:05;10.55;;;4.05;;
66546;SDS011;53400;50.364;14.874;2024-02-21T05:48:04;11.65;;;4.30;;
66546;SDS011;53400;50.364;14.874;2024-02-21T05:50:38;13.88;;;4.53;;
66546;SDS011;53400;50.364;14.874;2024-02-21T05:53:14;12.57;;;4.80;;
66546;SDS011;53400;50.364;14.874;2024-02-21T05:56:19;14.60;;;4.25;;
66546;SDS011;53400;50.364;14.874;2024-02-21T05:59:03;13.98;;;4.57;;
66546;SDS011;53400;50.364;14.874;2024-02-21T06:01:53;12.68;;;4.28;;
66546;SDS011;53400;50.364;14.874;2024-02-21T06:04:50;13.85;;;4.97;;
66546;SDS011;53400;50.364;14.874;2024-02-21T06:07:30;10.05;;;3.17;;
66546;SDS011;53400;50.364;14.874;2024-02-21T06:10:29;11.32;;;3.95;;
66546;SDS011;53400;50.364;14.874;2024-02-21T06:13:02;12.50;;;4.20;;
66546;SDS011;53400;50.364;14.874;2024-02-21T06:15:36;13.02;;;4.00;;
66546;SDS011;53400;50.364;14.874;2024-02-21T06:18:36;14.88;;;4.75;;
66546;SDS011;53400;50.364;14.874;2024-02-21T06:21:35;17.52;;;4.80;;
66546;SDS011;53400;50.364;14.874;2024-02-21T06:24:50;11.95;;;5.15;;
66546;SDS011;53400;50.364;14.874;2024-02-21T06:27:45;12.95;;;4.10;;
66546;SDS011;53400;50.364;14.874;2024-02-21T06:30:38;15.57;;;4.75;;
66546;SDS011;53400;50.364;14.874;2024-02-21T06:33:23;8.77;;;3.90;;
66546;SDS011;53400;50.364;14.874;2024-02-21T06:39:10;13.57;;;4.20;;
66546;SDS011;53400;50.364;14.874;2024-02-21T06:41:52;12.25;;;4.80;;
66546;SDS011;53400;50.364;14.874;2024-02-21T06:44:33;12.95;;;3.80;;
66546;SDS011;53400;50.364;14.874;2024-02-21T06:47:18;14.23;;;4.05;;
66546;SDS011;53400;50.364;14.874;2024-02-21T06:50:09;9.77;;;3.92;;
66546;SDS011;53400;50.364;14.874;2024-02-21T06:56:22;9.52;;;3.85;;
66546;SDS011;53400;50.364;14.874;2024-02-21T06:59:32;16.73;;;4.65;;
66546;SDS011;53400;50.364;14.874;2024-02-21T07:02:19;12.02;;;4.75;;
66546;SDS011;53400;50.364;14.874;2024-02-21T07:05:09;11.75;;;3.97;;
66546;SDS011;53400;50.364;14.874;2024-02-21T07:07:58;11.32;;;4.07;;
66546;SDS011;53400;50.364;14.874;2024-02-21T07:13:46;12.25;;;4.82;;
66546;SDS011;53400;50.364;14.874;2024-02-21T07:16:43;15.45;;;4.63;;
66546;SDS011;53400;50.364;14.874;2024-02-21T07:19:31;12.20;;;4.22;;
66546;SDS011;53400;50.364;14.874;2024-02-21T07:24:18;10.25;;;4.97;;
66546;SDS011;53400;50.364;14.874;2024-02-21T07:31:37;11.35;;;4.50;;
66546;SDS011;53400;50.364;14.874;2024-02-21T07:34:17;10.65;;;5.00;;
66546;SDS011;53400;50.364;14.874;2024-02-21T07:36:53;14.00;;;5.28;;
66546;SDS011;53400;50.364;14.874;2024-02-21T07:39:24;11.27;;;4.88;;
66546;SDS011;53400;50.364;14.874;2024-02-21T07:42:05;11.38;;;5.65;;
66546;SDS011;53400;50.364;14.874;2024-02-21T07:44:49;11.05;;;4.07;;
66546;SDS011;53400;50.364;14.874;2024-02-21T07:47:46;11.88;;;4.63;;
66546;SDS011;53400;50.364;14.874;2024-02-21T07:50:25;10.50;;;4.60;;
66546;SDS011;53400;50.364;14.874;2024-02-21T07:53:20;11.95;;;4.55;;
66546;SDS011;53400;50.364;14.874;2024-02-21T07:56:47;13.10;;;4.90;;
66546;SDS011;53400;50.364;14.874;2024-02-21T07:59:58;13.38;;;4.80;;
66546;SDS011;53400;50.364;14.874;2024-02-21T08:02:47;12.00;;;4.50;;
66546;SDS011;53400;50.364;14.874;2024-02-21T08:06:11;14.88;;;4.90;;
66546;SDS011;53400;50.364;14.874;2024-02-21T08:08:49;15.32;;;5.32;;
66546;SDS011;53400;50.364;14.874;2024-02-21T08:15:24;12.45;;;4.45;;
66546;SDS011;53400;50.364;14.874;2024-02-21T08:18:13;14.02;;;5.25;;
66546;SDS011;53400;50.364;14.874;2024-02-21T08:21:21;8.88;;;4.18;;
66546;SDS011;53400;50.364;14.874;2024-02-21T08:29:40;13.95;;;4.63;;
66546;SDS011;53400;50.364;14.874;2024-02-21T08:35:36;13.32;;;5.28;;
66546;SDS011;53400;50.364;14.874;2024-02-21T08:39:21;14.00;;;4.90;;
66546;SDS011;53400;50.364;14.874;2024-02-21T08:42:00;14.93;;;5.53;;
66546;SDS011;53400;50.364;14.874;2024-02-21T08:48:07;13.82;;;5.60;;
66546;SDS011;53400;50.364;14.874;2024-02-21T09:02:21;17.20;;;5.93;;
66546;SDS011;53400;50.364;14.874;2024-02-21T09:05:56;13.38;;;5.20;;
66546;SDS011;53400;50.364;14.874;2024-02-21T09:26:46;12.73;;;5.20;;
66546;SDS011;53400;50.364;14.874;2024-02-21T09:30:05;15.40;;;5.80;;
66546;SDS011;53400;50.364;14.874;2024-02-21T09:33:01;13.95;;;5.45;;
66546;SDS011;53400;50.364;14.874;2024-02-21T09:46:10;14.32;;;5.55;;
66546;SDS011;53400;50.364;14.874;2024-02-21T09:48:58;18.15;;;5.43;;
66546;SDS011;53400;50.364;14.874;2024-02-21T09:58:32;14.95;;;6.13;;
66546;SDS011;53400;50.364;14.874;2024-02-21T10:29:36;12.27;;;5.32;;
66546;SDS011;53400;50.364;14.874;2024-02-21T10:36:08;11.48;;;5.07;;
66546;SDS011;53400;50.364;14.874;2024-02-21T10:37:08;13.48;;;5.38;;
66546;SDS011;53400;50.364;14.874;2024-02-21T11:22:40;10.38;;;4.43;;
66546;SDS011;53400;50.364;14.874;2024-02-21T11:28:37;14.07;;;4.35;;
66546;SDS011;53400;50.364;14.874;2024-02-21T11:35:18;11.30;;;3.63;;
66546;SDS011;53400;50.364;14.874;2024-02-21T11:46:32;11.35;;;4.18;;
66546;SDS011;53400;50.364;14.874;2024-02-21T11:53:45;10.70;;;4.40;;
66546;SDS011;53400;50.364;14.874;2024-02-21T12:17:13;12.13;;;4.45;;
66546;SDS011;53400;50.364;14.874;2024-02-21T12:23:45;10.45;;;3.90;;
66546;SDS011;53400;50.364;14.874;2024-02-21T12:46:25;9.88;;;4.13;;
66546;SDS011;53400;50.364;14.874;2024-02-21T12:49:49;9.60;;;3.90;;
66546;SDS011;53400;50.364;14.874;2024-02-21T13:09:31;8.95;;;3.70;;
66546;SDS011;53400;50.364;14.874;2024-02-21T13:16:12;9.25;;;3.40;;
66546;SDS011;53400;50.364;14.874;2024-02-21T13:53:20;7.25;;;4.15;;
66546;SDS011;53400;50.364;14.874;2024-02-21T14:13:48;8.75;;;3.05;;
66546;SDS011;53400;50.364;14.874;2024-02-21T14:17:01;8.57;;;3.13;;
66546;SDS011;53400;50.364;14.874;2024-02-21T14:20:19;8.90;;;3.28;;
66546;SDS011;53400;50.364;14.874;2024-02-21T14:29:59;9.00;;;2.88;;
66546;SDS011;53400;50.364;14.874;2024-02-21T14:35:45;8.45;;;2.78;;
66546;SDS011;53400;50.364;14.874;2024-02-21T14:37:21;9.70;;;3.55;;
66546;SDS011;53400;50.364;14.874;2024-02-21T14:44:22;10.10;;;3.40;;
66546;SDS011;53400;50.364;14.874;2024-02-21T14:54:41;8.20;;;3.10;;
66546;SDS011;53400;50.364;14.874;2024-02-21T15:01:08;8.43;;;2.75;;
66546;SDS011;53400;50.364;14.874;2024-02-21T15:03:04;7.45;;;2.83;;
66546;SDS011;53400;50.364;14.874;2024-02-21T15:16:54;7.13;;;2.60;;
66546;SDS011;53400;50.364;14.874;2024-02-21T15:19:33;6.90;;;2.45;;
66546;SDS011;53400;50.364;14.874;2024-02-21T15:22:20;7.78;;;2.85;;
66546;SDS011;53400;50.364;14.874;2024-02-21T15:25:16;6.65;;;2.70;;
66546;SDS011;53400;50.364;14.874;2024-02-21T15:28:08;6.82;;;2.65;;
66546;SDS011;53400;50.364;14.874;2024-02-21T15:30:45;9.65;;;2.55;;
66546;SDS011;53400;50.364;14.874;2024-02-21T15:33:38;5.95;;;2.65;;
66546;SDS011;53400;50.364;14.874;2024-02-21T15:36:30;6.38;;;2.92;;
66546;SDS011;53400;50.364;14.874;2024-02-21T15:39:03;6.60;;;3.40;;
66546;SDS011;53400;50.364;14.874;2024-02-21T15:41:51;6.50;;;2.90;;
66546;SDS011;53400;50.364;14.874;2024-02-21T15:44:29;7.75;;;2.65;;
66546;SDS011;53400;50.364;14.874;2024-02-21T15:47:14;8.30;;;3.17;;
66546;SDS011;53400;50.364;14.874;2024-02-21T15:49:46;7.93;;;2.45;;
66546;SDS011;53400;50.364;14.874;2024-02-21T15:52:39;5.80;;;2.50;;
66546;SDS011;53400;50.364;14.874;2024-02-21T15:55:14;7.10;;;2.65;;
66546;SDS011;53400;50.364;14.874;2024-02-21T15:58:08;8.07;;;2.88;;
66546;SDS011;53400;50.364;14.874;2024-02-21T16:01:09;8.18;;;2.92;;
66546;SDS011;53400;50.364;14.874;2024-02-21T16:07:56;8.45;;;2.85;;
66546;SDS011;53400;50.364;14.874;2024-02-21T16:11:13;9.05;;;3.25;;
66546;SDS011;53400;50.364;14.874;2024-02-21T16:18:10;6.05;;;2.22;;
66546;SDS011;53400;50.364;14.874;2024-02-21T16:25:25;7.40;;;3.25;;
66546;SDS011;53400;50.364;14.874;2024-02-21T16:28:49;7.32;;;3.03;;
66546;SDS011;53400;50.364;14.874;2024-02-21T17:12:28;8.23;;;3.80;;
66546;SDS011;53400;50.364;14.874;2024-02-21T17:14:58;7.28;;;3.55;;
66546;SDS011;53400;50.364;14.874;2024-02-21T17:21:22;6.93;;;3.03;;
66546;SDS011;53400;50.364;14.874;2024-02-21T17:30:35;7.05;;;3.28;;
66546;SDS011;53400;50.364;14.874;2024-02-21T17:34:25;9.13;;;3.38;;
66546;SDS011;53400;50.364;14.874;2024-02-21T17:37:40;8.77;;;3.65;;
66546;SDS011;53400;50.364;14.874;2024-02-21T17:40:35;12.13;;;4.18;;
66546;SDS011;53400;50.364;14.874;2024-02-21T17:46:14;8.43;;;3.45;;
66546;SDS011;53400;50.364;14.874;2024-02-21T17:50:06;7.75;;;3.90;;
66546;SDS011;53400;50.364;14.874;2024-02-21T17:53:16;9.00;;;3.90;;
66546;SDS011;53400;50.364;14.874;2024-02-21T17:55:45;9.77;;;4.20;;
66546;SDS011;53400;50.364;14.874;2024-02-21T18:01:46;11.23;;;4.53;;
66546;SDS011;53400;50.364;14.874;2024-02-21T18:04:59;10.77;;;4.97;;
66546;SDS011;53400;50.364;14.874;2024-02-21T18:45:17;12.77;;;5.50;;
66546;SDS011;53400;50.364;14.874;2024-02-21T18:48:33;10.40;;;5.32;;
66546;SDS011;53400;50.364;14.874;2024-02-21T18:52:14;11.57;;;5.53;;
66546;SDS011;53400;50.364;14.874;2024-02-21T18:59:56;10.15;;;5.78;;
66546;SDS011;53400;50.364;14.874;2024-02-21T19:02:21;10.40;;;5.65;;
66546;SDS011;53400;50.364;14.874;2024-02-21T19:05:15;12.02;;;5.50;;
66546;SDS011;53400;50.364;14.874;2024-02-21T19:08:54;11.13;;;6.00;;
66546;SDS011;53400;50.364;14.874;2024-02-21T19:11:33;15.93;;;6.80;;
66546;SDS011;53400;50.364;14.874;2024-02-21T19:17:03;14.93;;;6.70;;
66546;SDS011;53400;50.364;14.874;2024-02-21T19:23:45;13.57;;;7.30;;
66546;SDS011;53400;50.364;14.874;2024-02-21T19:27:03;13.23;;;6.60;;
66546;SDS011;53400;50.364;14.874;2024-02-21T19:29:54;16.00;;;7.78;;
66546;SDS011;53400;50.364;14.874;2024-02-21T19:33:14;13.80;;;7.70;;
66546;SDS011;53400;50.364;14.874;2024-02-21T19:35:53;15.23;;;7.05;;
66546;SDS011;53400;50.364;14.874;2024-02-21T19:38:57;14.70;;;7.55;;
66546;SDS011;53400;50.364;14.874;2024-02-21T19:41:50;15.32;;;7.28;;
66546;SDS011;53400;50.364;14.874;2024-02-21T19:44:49;15.88;;;8.30;;
66546;SDS011;53400;50.364;14.874;2024-02-21T19:47:38;16.42;;;8.68;;
66546;SDS011;53400;50.364;14.874;2024-02-21T19:51:10;14.15;;;7.82;;
66546;SDS011;53400;50.364;14.874;2024-02-21T19:54:18;16.77;;;7.57;;
66546;SDS011;53400;50.364;14.874;2024-02-21T19:57:58;15.60;;;7.10;;
66546;SDS011;53400;50.364;14.874;2024-02-21T20:08:40;10.43;;;5.72;;
66546;SDS011;53400;50.364;14.874;2024-02-21T20:12:03;11.80;;;6.00;;
66546;SDS011;53400;50.364;14.874;2024-02-21T20:14:50;13.77;;;6.43;;
66546;SDS011;53400;50.364;14.874;2024-02-21T20:17:52;13.48;;;6.45;;
66546;SDS011;53400;50.364;14.874;2024-02-21T20:20:22;13.88;;;6.47;;
66546;SDS011;53400;50.364;14.874;2024-02-21T20:23:09;13.85;;;6.72;;
66546;SDS011;53400;50.364;14.874;2024-02-21T20:26:35;11.40;;;6.80;;
66546;SDS011;53400;50.364;14.874;2024-02-21T20:32:58;11.20;;;6.82;;
66546;SDS011;53400;50.364;14.874;2024-02-21T20:44:07;24.40;;;13.95;;
66546;SDS011;53400;50.364;14.874;2024-02-21T20:47:49;26.58;;;16.50;;
66546;SDS011;53400;50.364;14.874;2024-02-21T20:54:53;25.48;;;14.52;;
66546;SDS011;53400;50.364;14.874;2024-02-21T20:57:58;22.65;;;12.70;;
66546;SDS011;53400;50.364;14.874;2024-02-21T21:01:01;21.05;;;11.88;;
66546;SDS011;53400;50.364;14.874;2024-02-21T21:03:59;22.35;;;12.88;;
66546;SDS011;53400;50.364;14.874;2024-02-21T21:15:54;25.52;;;15.40;;
66546;SDS011;53400;50.364;14.874;2024-02-21T21:18:10;25.42;;;15.63;;
66546;SDS011;53400;50.364;14.874;2024-02-21T21:22:01;22.38;;;14.68;;
66546;SDS011;53400;50.364;14.874;2024-02-21T21:54:35;23.67;;;11.63;;
66546;SDS011;53400;50.364;14.874;2024-02-21T21:58:29;17.00;;;10.60;;
66546;SDS011;53400;50.364;14.874;2024-02-21T22:02:16;15.10;;;9.15;;
66546;SDS011;53400;50.364;14.874;2024-02-21T22:06:22;17.27;;;10.48;;
66546;SDS011;53400;50.364;14.874;2024-02-21T22:08:40;17.50;;;10.52;;
66546;SDS011;53400;50.364;14.874;2024-02-21T22:19:04;18.88;;;11.43;;
66546;SDS011;53400;50.364;14.874;2024-02-21T22:23:14;18.77;;;11.18;;
66546;SDS011;53400;50.364;14.874;2024-02-21T22:26:24;17.80;;;11.10;;
66546;SDS011;53400;50.364;14.874;2024-02-21T22:30:50;21.15;;;11.35;;
66546;SDS011;53400;50.364;14.874;2024-02-21T22:34:33;19.23;;;11.00;;
66546;SDS011;53400;50.364;14.874;2024-02-21T22:37:19;19.45;;;11.60;;
66546;SDS011;53400;50.364;14.874;2024-02-21T22:40:47;20.35;;;11.40;;
66546;SDS011;53400;50.364;14.874;2024-02-21T22:44:05;20.38;;;10.30;;
66546;SDS011;53400;50.364;14.874;2024-02-21T22:47:43;18.45;;;10.00;;
66546;SDS011;53400;50.364;14.874;2024-02-21T22:51:18;19.58;;;10.95;;
66546;SDS011;53400;50.364;14.874;2024-02-21T22:54:23;17.48;;;10.40;;
66546;SDS011;53400;50.364;14.874;2024-02-21T22:57:29;18.75;;;10.75;;
66546;SDS011;53400;50.364;14.874;2024-02-21T23:00:58;21.05;;;11.80;;
66546;SDS011;53400;50.364;14.874;2024-02-21T23:07:23;20.98;;;10.85;;
66546;SDS011;53400;50.364;14.874;2024-02-21T23:10:40;20.00;;;9.63;;
66546;SDS011;53400;50.364;14.874;2024-02-21T23:13:50;16.13;;;9.23;;
66546;SDS011;53400;50.364;14.874;2024-02-21T23:16:29;16.75;;;10.30;;
66546;SDS011;53400;50.364;14.874;2024-02-21T23:25:22;17.88;;;10.50;;
66546;SDS011;53400;50.364;14.874;2024-02-21T23:28:00;16.88;;;9.68;;
66546;SDS011;53400;50.364;14.874;2024-02-21T23:34:31;15.73;;;9.50;;
66546;SDS011;53400;50.364;14.874;2024-02-21T23:38:20;16.77;;;10.48;;
66546;SDS011;53400;50.364;14.874;2024-02-21T23:41:20;18.60;;;10.15;;
66546;SDS011;53400;50.364;14.874;2024-02-21T23:44:33;18.75;;;9.52;;
66546;SDS011;53400;50.364;14.874;2024-02-21T23:47:33;17.85;;;9.65;;
66546;SDS011;53400;50.364;14.874;2024-02-21T23:50:23;17.75;;;8.65;;
66546;SDS011;53400;50.364;14.874;2024-02-21T23:56:36;17.15;;;9.63;;
